Main page
METAR-TAF:

METAR-TAF

Airports :

Kunovice Airport

Uherské Hradiště, Czech Republic

latitude: 49-01-46N, longitude: 017-26-23E, elevation: 177 m

Current weather observation

The report was made 1 hour and 25 minutes ago, at 14:00 UTC
Wind 3 kt from the South, varying between Southeast and Southwest
Temperature 12°C
Humidity 67%
Pressure 1024 hPa
Visibility 10 km or more
no clouds below 1500 m and no cumulonimbus

METAR: LKKU 221400Z 19003KT 140V220 CAVOK 12/06 Q1024

Time: 17:25 (15:25 UTC)


TAF: missing

Weather observations and forecasts of more than 4000 airports (METAR and TAF reports).

The available stations are represented by yellow and red dots on the map.

Hover mouse over dot to see the name of the station.

Then click to see weather observations and forecasts.

To change the map : click on the green buttons with a black cross to zoom in, on the green button with a dash to zoom out, or on the green arrows for adjacent maps.


METAR-TAF: